createdAt,value
2018-09-29T00:00:37.460Z,14.34
2018-09-29T00:03:07.141Z,14.29
2018-09-29T00:05:37.210Z,14.29
2018-09-29T00:08:07.374Z,14.33
2018-09-29T00:10:37.008Z,14.28
2018-09-29T00:13:06.649Z,14.28
2018-09-29T00:15:36.383Z,14.33
2018-09-29T00:18:05.987Z,14.45
2018-09-29T00:20:35.527Z,14.32
2018-09-29T00:23:05.087Z,14.34
2018-09-29T00:25:34.656Z,14.30
2018-09-29T00:28:04.415Z,14.23
2018-09-29T00:30:33.986Z,14.15
2018-09-29T00:33:03.557Z,14.10
2018-09-29T00:35:33.095Z,14.08
2018-09-29T00:38:02.642Z,14.08
2018-09-29T00:40:32.201Z,14.01
2018-09-29T00:43:01.751Z,13.97
2018-09-29T00:45:31.289Z,13.98
2018-09-29T00:48:00.828Z,14.00
2018-09-29T00:50:30.435Z,14.06
2018-09-29T00:52:59.988Z,14.00
2018-09-29T00:55:29.671Z,13.97
2018-09-29T00:57:59.630Z,13.87
2018-09-29T01:00:29.188Z,13.86
2018-09-29T01:02:58.726Z,13.76
2018-09-29T01:05:28.254Z,13.72
2018-09-29T01:07:57.787Z,13.57
2018-09-29T01:10:27.313Z,13.59
2018-09-29T01:12:56.887Z,13.43
2018-09-29T01:15:26.776Z,13.29
2018-09-29T01:17:56.312Z,13.29
2018-09-29T01:20:25.940Z,13.17
2018-09-29T01:22:55.495Z,13.11
2018-09-29T01:25:25.124Z,12.95
2018-09-29T01:27:54.684Z,12.92
2018-09-29T01:30:24.236Z,12.85
2018-09-29T01:32:53.807Z,12.90
2018-09-29T01:35:23.374Z,12.89
2018-09-29T01:37:53.130Z,12.89
2018-09-29T01:40:22.872Z,12.81
2018-09-29T01:42:52.407Z,12.73
2018-09-29T01:45:21.989Z,12.74
2018-09-29T01:47:51.601Z,12.70
2018-09-29T01:50:21.654Z,12.70
2018-09-29T01:52:51.227Z,12.74
2018-09-29T01:55:20.782Z,12.72
2018-09-29T01:57:50.328Z,12.72
2018-09-29T02:00:19.891Z,12.69
2018-09-29T02:02:49.435Z,12.58
2018-09-29T02:05:19.375Z,12.56
2018-09-29T02:07:48.957Z,12.58
2018-09-29T02:10:18.963Z,12.61
2018-09-29T02:12:48.579Z,12.60
2018-09-29T02:15:18.323Z,12.57
2018-09-29T02:17:47.871Z,12.51
2018-09-29T02:20:17.422Z,12.53
2018-09-29T02:22:46.979Z,12.45
2018-09-29T02:25:16.539Z,12.48
2018-09-29T02:27:46.104Z,12.22
2018-09-29T02:30:15.635Z,12.19
2018-09-29T02:32:45.176Z,12.18
2018-09-29T02:35:14.991Z,12.16
2018-09-29T02:37:44.774Z,12.10
2018-09-29T02:40:14.316Z,12.17
2018-09-29T02:42:43.861Z,12.05
2018-09-29T02:45:13.388Z,12.05
2018-09-29T02:47:42.931Z,12.03
2018-09-29T02:50:12.776Z,12.05
2018-09-29T02:52:42.382Z,12.03
2018-09-29T02:55:11.939Z,12.06
2018-09-29T02:57:41.502Z,12.06
2018-09-29T03:00:11.263Z,12.08
2018-09-29T03:02:40.893Z,12.12
2018-09-29T03:05:10.507Z,12.09
2018-09-29T03:07:40.246Z,12.05
2018-09-29T03:10:09.776Z,12.03
2018-09-29T03:12:39.364Z,11.99
2018-09-29T03:15:08.974Z,11.96
2018-09-29T03:17:38.509Z,11.93
2018-09-29T03:20:08.262Z,11.89
2018-09-29T03:22:37.799Z,11.88
2018-09-29T03:25:07.399Z,11.81
2018-09-29T03:27:36.968Z,11.75
2018-09-29T03:30:06.860Z,11.69
2018-09-29T03:32:36.427Z,11.63
2018-09-29T03:35:05.976Z,11.55
2018-09-29T03:37:35.527Z,11.46
2018-09-29T03:40:05.343Z,11.31
2018-09-29T03:42:34.898Z,11.29
2018-09-29T03:45:04.449Z,11.15
2018-09-29T03:47:34.240Z,11.13
2018-09-29T03:50:03.867Z,11.10
2018-09-29T03:52:33.749Z,11.12
2018-09-29T03:55:03.362Z,11.16
2018-09-29T03:57:33.076Z,11.14
2018-09-29T04:00:02.849Z,11.13
2018-09-29T04:02:32.379Z,11.16
2018-09-29T04:05:02.203Z,11.17
2018-09-29T04:07:31.738Z,11.15
2018-09-29T04:10:01.287Z,11.09
2018-09-29T04:12:30.800Z,11.16
2018-09-29T04:15:00.396Z,11.18
2018-09-29T04:17:29.937Z,11.01
2018-09-29T04:19:59.468Z,11.01
2018-09-29T04:22:29.007Z,11.00
2018-09-29T04:24:58.584Z,11.00
2018-09-29T04:27:28.123Z,11.04
2018-09-29T04:29:57.720Z,10.98
2018-09-29T04:32:27.256Z,10.93
2018-09-29T04:34:56.784Z,10.94
2018-09-29T04:37:26.388Z,10.90
2018-09-29T04:39:55.967Z,10.84
2018-09-29T04:42:25.589Z,10.77
2018-09-29T04:44:55.176Z,10.73
2018-09-29T04:47:25.074Z,10.62
2018-09-29T04:49:55.704Z,10.68
2018-09-29T04:52:25.267Z,10.67
2018-09-29T04:54:55.095Z,10.55
2018-09-29T04:57:24.747Z,10.58
2018-09-29T04:59:54.379Z,10.57
2018-09-29T05:02:23.899Z,10.56
2018-09-29T05:04:53.503Z,10.59
2018-09-29T05:07:23.088Z,10.56
2018-09-29T05:09:52.689Z,10.57
2018-09-29T05:12:22.580Z,10.56
2018-09-29T05:14:52.098Z,10.58
2018-09-29T05:17:21.777Z,10.58
2018-09-29T05:19:51.368Z,10.55
2018-09-29T05:22:20.934Z,10.57
2018-09-29T05:24:50.520Z,10.55
2018-09-29T05:27:20.278Z,10.53
2018-09-29T05:29:50.236Z,10.54
2018-09-29T05:32:20.001Z,10.56
2018-09-29T05:34:49.572Z,10.51
2018-09-29T05:37:19.451Z,10.56
2018-09-29T05:39:49.025Z,10.49
2018-09-29T05:42:18.566Z,10.56
2018-09-29T05:44:48.383Z,10.63
2018-09-29T05:47:17.962Z,10.70
2018-09-29T05:49:47.531Z,10.67
2018-09-29T05:52:17.086Z,10.70
2018-09-29T05:54:46.769Z,10.79
2018-09-29T05:57:16.594Z,10.82
2018-09-29T05:59:46.184Z,10.97
2018-09-29T06:02:15.779Z,11.12
2018-09-29T06:04:45.499Z,11.24
2018-09-29T06:07:15.081Z,11.37
2018-09-29T06:09:44.819Z,11.51
2018-09-29T06:12:14.604Z,11.73
2018-09-29T06:14:44.468Z,11.92
2018-09-29T06:17:14.011Z,12.04
2018-09-29T06:19:43.601Z,12.16
2018-09-29T06:22:13.182Z,12.26
2018-09-29T06:24:42.763Z,12.34
2018-09-29T06:27:12.535Z,12.13
2018-09-29T06:29:42.207Z,12.21
2018-09-29T06:32:11.887Z,12.38
2018-09-29T06:34:41.670Z,12.66
2018-09-29T06:37:11.236Z,12.87
2018-09-29T06:39:40.807Z,13.06
2018-09-29T06:42:10.407Z,13.26
2018-09-29T06:44:39.987Z,13.26
2018-09-29T06:47:09.684Z,13.43
2018-09-29T06:49:39.299Z,13.52
2018-09-29T06:52:09.049Z,13.66
2018-09-29T06:54:38.636Z,13.63
2018-09-29T06:57:08.715Z,13.46
2018-09-29T06:59:38.331Z,13.83
2018-09-29T07:02:07.879Z,14.07
2018-09-29T07:04:37.424Z,14.31
2018-09-29T07:07:07.069Z,14.60
2018-09-29T07:09:36.641Z,14.74
2018-09-29T07:12:06.354Z,14.85
2018-09-29T07:14:35.944Z,14.67
2018-09-29T07:17:06.887Z,14.49
2018-09-29T07:19:37.145Z,14.01
2018-09-29T07:22:13.469Z,13.83
2018-09-29T07:24:43.066Z,13.53
2018-09-29T07:27:12.633Z,13.29
2018-09-29T07:29:43.012Z,13.43
2018-09-29T07:32:12.594Z,13.47
2018-09-29T07:34:42.161Z,13.58
2018-09-29T07:37:11.960Z,13.61
2018-09-29T07:39:41.545Z,13.72
2018-09-29T07:42:11.112Z,13.76
2018-09-29T07:44:40.743Z,13.90
2018-09-29T07:47:10.358Z,13.96
2018-09-29T07:49:45.066Z,14.17
2018-09-29T07:52:14.712Z,14.18
2018-09-29T07:54:44.384Z,14.21
2018-09-29T07:57:14.158Z,14.40
2018-09-29T07:59:43.760Z,14.31
2018-09-29T08:02:13.320Z,14.28
2018-09-29T08:04:42.917Z,14.35
2018-09-29T08:07:12.559Z,14.13
2018-09-29T08:09:42.152Z,14.44
2018-09-29T08:12:11.780Z,14.56
2018-09-29T08:14:41.536Z,14.37
2018-09-29T08:17:11.244Z,14.48
2018-09-29T08:19:41.660Z,14.63
2018-09-29T08:22:11.308Z,14.57
2018-09-29T08:24:40.913Z,14.62
2018-09-29T08:27:13.651Z,14.59
2018-09-29T08:29:43.246Z,14.94
2018-09-29T08:32:12.944Z,14.86
2018-09-29T08:34:42.751Z,14.76
2018-09-29T08:37:12.440Z,14.97
2018-09-29T08:39:43.005Z,14.95
2018-09-29T08:42:13.093Z,15.06
2018-09-29T08:44:42.771Z,14.81
2018-09-29T08:47:12.416Z,15.01
2018-09-29T08:49:42.171Z,14.95
2018-09-29T08:52:11.755Z,14.91
2018-09-29T08:54:41.339Z,14.97
2018-09-29T08:57:10.890Z,15.30
2018-09-29T08:59:40.493Z,15.43
2018-09-29T09:02:10.092Z,15.40
2018-09-29T09:04:39.674Z,15.38
2018-09-29T09:07:12.536Z,15.43
2018-09-29T09:09:44.428Z,15.18
2018-09-29T09:12:13.972Z,15.12
2018-09-29T09:14:43.725Z,15.29
2018-09-29T09:17:13.556Z,15.50
2018-09-29T09:19:43.172Z,15.21
2018-09-29T09:22:12.721Z,15.32
2018-09-29T09:24:42.275Z,15.47
2018-09-29T09:27:11.899Z,15.85
2018-09-29T09:29:41.505Z,15.83
2018-09-29T09:32:11.237Z,15.38
2018-09-29T09:34:40.996Z,15.36
2018-09-29T09:37:10.574Z,15.51
2018-09-29T09:39:40.165Z,15.72
2018-09-29T09:42:10.136Z,15.56
2018-09-29T09:44:39.736Z,15.72
2018-09-29T09:47:09.288Z,15.80
2018-09-29T09:49:39.177Z,15.69
2018-09-29T09:52:08.711Z,15.78
2018-09-29T09:54:38.309Z,15.90
2018-09-29T09:57:07.913Z,16.07
2018-09-29T09:59:37.680Z,16.23
2018-09-29T10:02:12.719Z,16.10
2018-09-29T10:04:42.277Z,16.24
2018-09-29T10:07:11.851Z,16.40
2018-09-29T10:09:41.501Z,16.43
2018-09-29T10:12:11.084Z,16.25
2018-09-29T10:14:40.677Z,16.42
2018-09-29T10:17:10.231Z,16.58
2018-09-29T10:19:39.812Z,16.71
2018-09-29T10:22:09.415Z,16.95
2018-09-29T10:24:39.041Z,16.87
2018-09-29T10:27:11.791Z,17.00
2018-09-29T10:29:41.638Z,16.89
2018-09-29T10:32:11.226Z,16.95
2018-09-29T10:34:40.805Z,17.00
2018-09-29T10:37:16.694Z,17.01
2018-09-29T10:39:46.498Z,16.84
2018-09-29T10:42:16.078Z,17.10
2018-09-29T10:44:45.648Z,17.29
2018-09-29T10:47:15.505Z,17.37
2018-09-29T10:49:45.151Z,17.48
2018-09-29T10:52:14.793Z,17.68
2018-09-29T10:54:49.097Z,17.60
2018-09-29T10:57:18.680Z,17.69
2018-09-29T10:59:48.340Z,17.54
2018-09-29T11:02:17.954Z,17.65
2018-09-29T11:04:47.566Z,17.73
2018-09-29T11:07:17.791Z,17.56
2018-09-29T11:09:47.581Z,17.54
2018-09-29T11:12:17.166Z,17.73
2018-09-29T11:14:46.773Z,17.83
2018-09-29T11:17:16.317Z,17.78
2018-09-29T11:19:45.876Z,17.83
2018-09-29T11:22:15.461Z,17.92
2018-09-29T11:24:45.406Z,18.01
2018-09-29T11:27:14.992Z,18.10
2018-09-29T11:29:44.724Z,17.96
2018-09-29T11:32:14.304Z,17.93
2018-09-29T11:34:43.888Z,17.86
2018-09-29T11:37:13.465Z,17.97
2018-09-29T11:39:43.102Z,17.95
2018-09-29T11:42:12.720Z,17.98
2018-09-29T11:44:42.270Z,17.77
2018-09-29T11:47:12.232Z,17.61
2018-09-29T11:49:41.771Z,17.45
2018-09-29T11:52:11.431Z,17.56
2018-09-29T11:54:41.090Z,17.70
2018-09-29T11:57:10.702Z,17.78
2018-09-29T11:59:40.249Z,17.87
2018-09-29T12:02:09.885Z,17.91
2018-09-29T12:04:39.683Z,17.87
2018-09-29T12:07:09.367Z,18.02
2018-09-29T12:09:39.116Z,18.08
2018-09-29T12:12:08.704Z,18.03
2018-09-29T12:14:38.307Z,18.11
2018-09-29T12:17:07.996Z,18.11
2018-09-29T12:19:37.915Z,18.17
2018-09-29T12:22:07.498Z,18.14
2018-09-29T12:24:37.274Z,18.18
2018-09-29T12:27:06.998Z,18.21
2018-09-29T12:29:36.552Z,18.14
2018-09-29T12:32:06.191Z,18.11
2018-09-29T12:34:36.665Z,18.03
2018-09-29T12:37:07.719Z,18.06
2018-09-29T12:39:37.399Z,18.11
2018-09-29T12:42:07.000Z,17.96
2018-09-29T12:44:36.663Z,18.04
2018-09-29T12:47:06.389Z,18.10
2018-09-29T12:49:36.027Z,18.01
2018-09-29T12:52:05.580Z,18.02
2018-09-29T12:54:35.186Z,17.98
2018-09-29T12:57:04.759Z,17.96
2018-09-29T12:59:34.348Z,18.03
2018-09-29T13:02:03.960Z,18.10
2018-09-29T13:04:33.499Z,18.10
2018-09-29T13:07:03.069Z,18.07
2018-09-29T13:09:32.655Z,18.11
2018-09-29T13:12:02.311Z,18.17
2018-09-29T13:14:31.906Z,18.17
2018-09-29T13:17:01.580Z,18.25
2018-09-29T13:19:31.255Z,18.21
2018-09-29T13:22:01.104Z,18.20
2018-09-29T13:24:30.647Z,18.17
2018-09-29T13:27:00.387Z,18.18
2018-09-29T13:29:29.974Z,18.12
2018-09-29T13:31:59.744Z,18.10
2018-09-29T13:34:29.483Z,18.09
2018-09-29T13:37:01.065Z,17.73
2018-09-29T13:39:30.919Z,17.69
2018-09-29T13:42:00.540Z,17.78
2018-09-29T13:44:30.113Z,17.76
2018-09-29T13:46:59.711Z,17.58
2018-09-29T13:49:29.303Z,17.63
2018-09-29T13:51:58.865Z,17.67
2018-09-29T13:54:30.242Z,17.62
2018-09-29T13:56:59.956Z,17.77
2018-09-29T13:59:29.504Z,17.81
2018-09-29T14:01:59.194Z,17.72
2018-09-29T14:04:29.017Z,17.70
2018-09-29T14:06:58.573Z,17.67
2018-09-29T14:09:28.127Z,17.74
2018-09-29T14:11:57.707Z,17.65
2018-09-29T14:14:27.292Z,17.67
2018-09-29T14:16:56.856Z,17.71
2018-09-29T14:19:26.420Z,17.63
2018-09-29T14:21:56.203Z,17.58
2018-09-29T14:24:25.799Z,17.62
2018-09-29T14:26:55.364Z,17.64
2018-09-29T14:29:25.368Z,17.64
2018-09-29T14:31:55.176Z,17.66
2018-09-29T14:34:24.739Z,17.78
2018-09-29T14:36:54.345Z,17.81
2018-09-29T14:39:24.083Z,17.80
2018-09-29T14:41:53.700Z,17.79
2018-09-29T14:44:23.408Z,17.80
2018-09-29T14:46:53.024Z,17.88
2018-09-29T14:49:22.656Z,17.85
2018-09-29T14:51:52.258Z,17.91
2018-09-29T14:54:21.817Z,17.90
2018-09-29T14:56:51.416Z,17.91
2018-09-29T14:59:21.035Z,17.93
2018-09-29T15:01:50.560Z,17.96
2018-09-29T15:04:20.221Z,18.01
2018-09-29T15:06:49.959Z,18.01
2018-09-29T15:09:19.543Z,17.98
2018-09-29T15:11:49.113Z,17.94
2018-09-29T15:14:18.747Z,17.92
2018-09-29T15:16:48.338Z,17.89
2018-09-29T15:19:17.911Z,17.84
2018-09-29T15:21:47.504Z,17.73
2018-09-29T15:24:17.122Z,17.74
2018-09-29T15:26:46.694Z,17.76
2018-09-29T15:29:16.243Z,17.70
2018-09-29T15:31:45.857Z,17.71
2018-09-29T15:34:15.449Z,17.67
2018-09-29T15:36:45.451Z,17.67
2018-09-29T15:39:15.018Z,17.62
2018-09-29T15:41:44.622Z,17.61
2018-09-29T15:44:14.372Z,17.59
2018-09-29T15:46:43.945Z,17.61
2018-09-29T15:49:13.529Z,17.54
2018-09-29T15:51:43.135Z,17.51
2018-09-29T15:54:12.741Z,17.53
2018-09-29T15:56:42.336Z,17.47
2018-09-29T15:59:11.976Z,17.45
2018-09-29T16:01:41.541Z,17.43
2018-09-29T16:04:11.074Z,17.40
2018-09-29T16:06:40.632Z,17.34
2018-09-29T16:09:10.986Z,17.33
2018-09-29T16:11:41.346Z,17.26
2018-09-29T16:14:10.989Z,17.19
2018-09-29T16:16:40.503Z,17.18
2018-09-29T16:19:10.068Z,17.12
2018-09-29T16:21:39.692Z,17.03
2018-09-29T16:24:09.468Z,16.99
2018-09-29T16:26:39.011Z,16.95
2018-09-29T16:29:08.715Z,16.89
2018-09-29T16:31:38.267Z,16.84
2018-09-29T16:34:08.430Z,16.84
2018-09-29T16:36:38.190Z,16.74
2018-09-29T16:39:12.061Z,16.66
2018-09-29T16:41:41.908Z,16.68
2018-09-29T16:44:11.464Z,16.64
2018-09-29T16:46:41.003Z,16.60
2018-09-29T16:49:10.757Z,16.57
2018-09-29T16:51:40.299Z,16.53
2018-09-29T16:54:09.935Z,16.51
2018-09-29T16:56:39.876Z,16.46
2018-09-29T16:59:09.411Z,16.36
2018-09-29T17:01:39.012Z,16.36
2018-09-29T17:04:08.868Z,16.33
2018-09-29T17:06:38.616Z,16.31
2018-09-29T17:09:11.699Z,16.25
2018-09-29T17:11:41.515Z,16.23
2018-09-29T17:14:11.075Z,16.19
2018-09-29T17:16:40.708Z,16.15
2018-09-29T17:19:10.413Z,16.11
2018-09-29T17:21:39.995Z,16.05
2018-09-29T17:24:09.520Z,15.99
2018-09-29T17:26:39.153Z,15.90
2018-09-29T17:29:09.114Z,15.80
2018-09-29T17:31:38.792Z,15.73
2018-09-29T17:34:08.716Z,15.67
2018-09-29T17:36:38.797Z,15.65
2018-09-29T17:39:11.525Z,15.59
2018-09-29T17:41:41.810Z,15.51
2018-09-29T17:44:14.260Z,15.48
2018-09-29T17:46:44.079Z,15.46
2018-09-29T17:49:13.788Z,15.35
2018-09-29T17:51:43.395Z,15.29
2018-09-29T17:54:13.007Z,15.24
2018-09-29T17:56:42.544Z,15.16
2018-09-29T17:59:12.166Z,15.14
2018-09-29T18:01:41.682Z,15.07
2018-09-29T18:04:11.409Z,14.95
2018-09-29T18:06:41.168Z,14.88
2018-09-29T18:09:12.356Z,14.87
2018-09-29T18:11:42.243Z,14.80
2018-09-29T18:14:11.772Z,14.72
2018-09-29T18:16:41.375Z,14.59
2018-09-29T18:19:10.933Z,14.49
2018-09-29T18:21:40.515Z,14.40
2018-09-29T18:24:10.484Z,14.22
2018-09-29T18:26:40.089Z,14.15
2018-09-29T18:29:09.665Z,14.11
2018-09-29T18:31:39.551Z,13.99
2018-09-29T18:34:09.531Z,13.85
2018-09-29T18:36:43.815Z,13.75
2018-09-29T18:39:13.894Z,13.72
2018-09-29T18:41:43.476Z,13.67
2018-09-29T18:44:13.056Z,13.68
2018-09-29T18:46:42.640Z,13.65
2018-09-29T18:49:12.208Z,13.64
2018-09-29T18:51:41.845Z,13.56
2018-09-29T18:54:12.059Z,13.55
2018-09-29T18:56:41.624Z,13.51
2018-09-29T18:59:11.223Z,13.40
2018-09-29T19:01:40.835Z,13.30
2018-09-29T19:04:10.440Z,13.14
2018-09-29T19:06:40.021Z,13.06
2018-09-29T19:09:11.923Z,13.02
2018-09-29T19:11:42.333Z,12.92
2018-09-29T19:14:11.910Z,12.90
2018-09-29T19:16:41.463Z,12.87
2018-09-29T19:19:11.062Z,12.80
2018-09-29T19:21:40.682Z,12.77
2018-09-29T19:24:10.254Z,12.71
2018-09-29T19:26:39.831Z,12.68
2018-09-29T19:29:09.413Z,12.68
2018-09-29T19:31:39.028Z,12.67
2018-09-29T19:34:08.604Z,12.67
2018-09-29T19:36:38.224Z,12.62
2018-09-29T19:39:08.266Z,12.63
2018-09-29T19:41:37.890Z,12.64
2018-09-29T19:44:07.454Z,12.63
2018-09-29T19:46:37.066Z,12.59
2018-09-29T19:49:07.523Z,12.60
2018-09-29T19:51:37.140Z,12.60
2018-09-29T19:54:06.791Z,12.63
2018-09-29T19:56:36.383Z,12.62
2018-09-29T19:59:06.178Z,12.59
2018-09-29T20:01:35.803Z,12.58
2018-09-29T20:04:05.525Z,12.53
2018-09-29T20:06:35.318Z,12.49
2018-09-29T20:09:07.229Z,12.45
2018-09-29T20:11:37.076Z,12.44
2018-09-29T20:14:06.656Z,12.40
2018-09-29T20:16:36.257Z,12.31
2018-09-29T20:19:06.751Z,12.28
2018-09-29T20:21:39.575Z,12.23
2018-09-29T20:24:09.229Z,12.22
2018-09-29T20:26:39.030Z,12.26
2018-09-29T20:29:08.628Z,12.23
2018-09-29T20:31:38.210Z,12.24
2018-09-29T20:34:07.856Z,12.18
2018-09-29T20:36:37.496Z,12.08
2018-09-29T20:39:11.546Z,12.00
2018-09-29T20:41:41.633Z,11.96
2018-09-29T20:44:11.751Z,11.86
2018-09-29T20:46:41.374Z,11.89
2018-09-29T20:49:11.130Z,11.93
2018-09-29T20:51:41.084Z,11.97
2018-09-29T20:54:10.691Z,11.91
2018-09-29T20:56:40.275Z,11.83
2018-09-29T20:59:09.874Z,11.76
2018-09-29T21:01:39.496Z,11.70
2018-09-29T21:04:09.098Z,11.59
2018-09-29T21:06:38.924Z,11.54
2018-09-29T21:09:09.308Z,11.45
2018-09-29T21:11:38.923Z,11.36
2018-09-29T21:14:08.596Z,11.35
2018-09-29T21:16:38.159Z,11.28
2018-09-29T21:19:07.876Z,11.25
2018-09-29T21:21:37.431Z,11.18
2018-09-29T21:24:07.405Z,11.14
2018-09-29T21:26:37.153Z,11.02
2018-09-29T21:29:07.488Z,10.99
2018-09-29T21:31:37.401Z,10.94
2018-09-29T21:34:07.257Z,10.88
2018-09-29T21:36:37.290Z,10.87
2018-09-29T21:39:09.608Z,10.85
2018-09-29T21:41:40.059Z,10.90
2018-09-29T21:44:10.126Z,10.92
2018-09-29T21:46:39.898Z,10.87
2018-09-29T21:49:09.840Z,10.93
2018-09-29T21:51:39.578Z,10.96
2018-09-29T21:54:09.140Z,10.99
2018-09-29T21:56:38.775Z,10.94
2018-09-29T21:59:08.701Z,10.87
2018-09-29T22:01:38.244Z,10.75
2018-09-29T22:04:07.910Z,10.80
2018-09-29T22:06:37.533Z,10.83
2018-09-29T22:09:08.795Z,10.79
2018-09-29T22:11:38.371Z,10.84
2018-09-29T22:14:08.283Z,10.86
2018-09-29T22:16:37.855Z,10.90
2018-09-29T22:19:08.048Z,10.82
2018-09-29T22:21:37.721Z,10.70
2018-09-29T22:24:07.439Z,10.57
2018-09-29T22:26:37.069Z,10.40
2018-09-29T22:29:06.787Z,10.30
2018-09-29T22:31:36.395Z,10.23
2018-09-29T22:34:06.074Z,10.16
2018-09-29T22:36:35.736Z,10.05
2018-09-29T22:39:07.807Z,10.00
2018-09-29T22:41:37.595Z,9.93
2018-09-29T22:44:07.840Z,9.85
2018-09-29T22:46:37.658Z,9.77
2018-09-29T22:49:07.615Z,9.69
2018-09-29T22:51:38.222Z,9.71
2018-09-29T22:54:07.880Z,9.63
2018-09-29T22:56:37.413Z,9.57
2018-09-29T22:59:07.108Z,9.49
2018-09-29T23:01:36.947Z,9.43
2018-09-29T23:04:06.534Z,9.40
2018-09-29T23:06:36.102Z,9.36
2018-09-29T23:09:10.583Z,9.27
2018-09-29T23:11:40.227Z,9.20
2018-09-29T23:14:09.764Z,9.16
2018-09-29T23:16:39.314Z,9.01
2018-09-29T23:19:09.235Z,8.91
2018-09-29T23:21:38.924Z,8.91
2018-09-29T23:24:08.893Z,8.89
2018-09-29T23:26:38.631Z,8.86
2018-09-29T23:29:08.196Z,8.87
2018-09-29T23:31:37.793Z,8.80
2018-09-29T23:34:07.708Z,8.76
2018-09-29T23:36:37.280Z,8.71
2018-09-29T23:39:09.656Z,8.69
2018-09-29T23:41:39.252Z,8.64
2018-09-29T23:44:09.295Z,8.56
2018-09-29T23:46:38.831Z,8.44
2018-09-29T23:49:08.583Z,8.42
2018-09-29T23:51:38.103Z,8.45
2018-09-29T23:54:07.668Z,8.41
2018-09-29T23:56:37.184Z,8.39
2018-09-29T23:59:06.707Z,8.37
